sensor_id;sensor_type;location;lat;lon;timestamp;temperature;humidity
10911;DHT22;5508;49.150;11.030;2023-03-21T00:01:24;6.10;99.90
10911;DHT22;5508;49.150;11.030;2023-03-21T00:04:26;6.10;99.90
10911;DHT22;5508;49.150;11.030;2023-03-21T00:07:26;6.10;99.90
10911;DHT22;5508;49.150;11.030;2023-03-21T00:10:27;6.10;99.90
10911;DHT22;5508;49.150;11.030;2023-03-21T00:13:29;6.20;99.90
10911;DHT22;5508;49.150;11.030;2023-03-21T00:16:31;6.10;99.90
10911;DHT22;5508;49.150;11.030;2023-03-21T00:19:32;6.20;99.90
10911;DHT22;5508;49.150;11.030;2023-03-21T00:22:35;6.20;99.90
10911;DHT22;5508;49.150;11.030;2023-03-21T00:25:36;6.20;99.90
10911;DHT22;5508;49.150;11.030;2023-03-21T00:28:40;6.10;99.90
10911;DHT22;5508;49.150;11.030;2023-03-21T00:31:41;6.20;99.90
10911;DHT22;5508;49.150;11.030;2023-03-21T00:34:42;6.20;99.90
10911;DHT22;5508;49.150;11.030;2023-03-21T00:37:43;6.20;99.90
10911;DHT22;5508;49.150;11.030;2023-03-21T00:40:44;6.10;99.90
10911;DHT22;5508;49.150;11.030;2023-03-21T00:43:44;6.00;99.90
10911;DHT22;5508;49.150;11.030;2023-03-21T00:46:45;5.90;99.90
10911;DHT22;5508;49.150;11.030;2023-03-21T00:49:46;5.80;99.90
10911;DHT22;5508;49.150;11.030;2023-03-21T00:52:46;5.90;99.90
10911;DHT22;5508;49.150;11.030;2023-03-21T00:55:47;5.80;99.90
10911;DHT22;5508;49.150;11.030;2023-03-21T00:58:48;5.90;99.90
10911;DHT22;5508;49.150;11.030;2023-03-21T01:01:49;5.80;99.90
10911;DHT22;5508;49.150;11.030;2023-03-21T01:04:53;5.90;99.90
10911;DHT22;5508;49.150;11.030;2023-03-21T01:07:53;5.80;99.90
10911;DHT22;5508;49.150;11.030;2023-03-21T01:10:55;5.90;99.90
10911;DHT22;5508;49.150;11.030;2023-03-21T01:13:56;5.90;99.90
10911;DHT22;5508;49.150;11.030;2023-03-21T01:16:57;5.90;99.90
10911;DHT22;5508;49.150;11.030;2023-03-21T01:19:58;5.90;99.90
10911;DHT22;5508;49.150;11.030;2023-03-21T01:22:58;5.90;99.90
10911;DHT22;5508;49.150;11.030;2023-03-21T01:25:59;5.80;99.90
10911;DHT22;5508;49.150;11.030;2023-03-21T01:29:00;5.80;99.90
10911;DHT22;5508;49.150;11.030;2023-03-21T01:32:00;5.80;99.90
10911;DHT22;5508;49.150;11.030;2023-03-21T01:35:01;5.80;99.90
10911;DHT22;5508;49.150;11.030;2023-03-21T01:38:01;5.90;99.90
10911;DHT22;5508;49.150;11.030;2023-03-21T01:41:02;5.90;99.90
10911;DHT22;5508;49.150;11.030;2023-03-21T01:44:03;5.90;99.90
10911;DHT22;5508;49.150;11.030;2023-03-21T01:47:04;5.90;99.90
10911;DHT22;5508;49.150;11.030;2023-03-21T01:50:05;5.90;99.90
10911;DHT22;5508;49.150;11.030;2023-03-21T01:53:06;5.90;99.90
10911;DHT22;5508;49.150;11.030;2023-03-21T01:56:24;5.90;99.90
10911;DHT22;5508;49.150;11.030;2023-03-21T01:59:26;5.90;99.90
10911;DHT22;5508;49.150;11.030;2023-03-21T02:02:29;5.90;99.90
10911;DHT22;5508;49.150;11.030;2023-03-21T02:05:40;5.90;99.90
10911;DHT22;5508;49.150;11.030;2023-03-21T02:08:43;5.80;99.90
10911;DHT22;5508;49.150;11.030;2023-03-21T02:11:45;5.80;99.90
10911;DHT22;5508;49.150;11.030;2023-03-21T02:14:50;5.80;99.90
10911;DHT22;5508;49.150;11.030;2023-03-21T02:21:23;5.90;99.90
10911;DHT22;5508;49.150;11.030;2023-03-21T02:28:06;5.70;99.90
10911;DHT22;5508;49.150;11.030;2023-03-21T02:38:03;5.70;99.90
10911;DHT22;5508;49.150;11.030;2023-03-21T02:44:45;5.70;99.90
10911;DHT22;5508;49.150;11.030;2023-03-21T02:47:53;5.60;99.90
10911;DHT22;5508;49.150;11.030;2023-03-21T02:50:57;5.60;99.90
10911;DHT22;5508;49.150;11.030;2023-03-21T02:54:04;5.50;99.90
10911;DHT22;5508;49.150;11.030;2023-03-21T02:57:06;5.40;99.90
10911;DHT22;5508;49.150;11.030;2023-03-21T03:00:08;5.40;99.90
10911;DHT22;5508;49.150;11.030;2023-03-21T03:03:12;5.40;99.90
10911;DHT22;5508;49.150;11.030;2023-03-21T03:06:19;5.40;99.90
10911;DHT22;5508;49.150;11.030;2023-03-21T03:19:51;5.50;99.90
10911;DHT22;5508;49.150;11.030;2023-03-21T03:29:27;5.50;99.90
10911;DHT22;5508;49.150;11.030;2023-03-21T03:32:35;5.40;99.90
10911;DHT22;5508;49.150;11.030;2023-03-21T03:35:36;5.40;99.90
10911;DHT22;5508;49.150;11.030;2023-03-21T03:38:37;5.40;99.90
10911;DHT22;5508;49.150;11.030;2023-03-21T03:41:48;5.40;99.90
10911;DHT22;5508;49.150;11.030;2023-03-21T03:44:50;5.50;99.90
10911;DHT22;5508;49.150;11.030;2023-03-21T03:48:11;5.50;99.90
10911;DHT22;5508;49.150;11.030;2023-03-21T03:51:19;5.50;99.90
10911;DHT22;5508;49.150;11.030;2023-03-21T03:54:33;5.50;99.90
10911;DHT22;5508;49.150;11.030;2023-03-21T03:57:35;5.50;99.90
10911;DHT22;5508;49.150;11.030;2023-03-21T04:00:37;5.60;99.90
10911;DHT22;5508;49.150;11.030;2023-03-21T04:03:39;5.60;99.90
10911;DHT22;5508;49.150;11.030;2023-03-21T04:06:41;5.60;99.90
10911;DHT22;5508;49.150;11.030;2023-03-21T04:09:41;5.70;99.90
10911;DHT22;5508;49.150;11.030;2023-03-21T04:12:42;5.60;99.90
10911;DHT22;5508;49.150;11.030;2023-03-21T04:15:43;5.70;99.90
10911;DHT22;5508;49.150;11.030;2023-03-21T04:18:44;5.60;99.90
10911;DHT22;5508;49.150;11.030;2023-03-21T04:21:46;5.60;99.90
10911;DHT22;5508;49.150;11.030;2023-03-21T04:24:46;5.60;99.90
10911;DHT22;5508;49.150;11.030;2023-03-21T04:27:47;5.70;99.90
10911;DHT22;5508;49.150;11.030;2023-03-21T04:30:48;5.70;99.90
10911;DHT22;5508;49.150;11.030;2023-03-21T04:33:49;5.60;99.90
10911;DHT22;5508;49.150;11.030;2023-03-21T04:36:50;5.50;99.90
10911;DHT22;5508;49.150;11.030;2023-03-21T04:39:53;5.60;99.90
10911;DHT22;5508;49.150;11.030;2023-03-21T04:42:54;5.50;99.90
10911;DHT22;5508;49.150;11.030;2023-03-21T04:45:55;5.60;99.90
10911;DHT22;5508;49.150;11.030;2023-03-21T04:48:55;5.50;99.90
10911;DHT22;5508;49.150;11.030;2023-03-21T04:51:56;5.50;99.90
10911;DHT22;5508;49.150;11.030;2023-03-21T04:54:57;5.50;99.90
10911;DHT22;5508;49.150;11.030;2023-03-21T04:57:57;5.50;99.90
10911;DHT22;5508;49.150;11.030;2023-03-21T05:00:58;5.50;99.90
10911;DHT22;5508;49.150;11.030;2023-03-21T05:04:02;5.60;99.90
10911;DHT22;5508;49.150;11.030;2023-03-21T05:07:03;5.50;99.90
10911;DHT22;5508;49.150;11.030;2023-03-21T05:10:05;5.50;99.90
10911;DHT22;5508;49.150;11.030;2023-03-21T05:13:06;5.60;99.90
10911;DHT22;5508;49.150;11.030;2023-03-21T05:16:07;5.60;99.90
10911;DHT22;5508;49.150;11.030;2023-03-21T05:19:09;5.50;99.90
10911;DHT22;5508;49.150;11.030;2023-03-21T05:22:13;5.50;99.90
10911;DHT22;5508;49.150;11.030;2023-03-21T05:25:18;5.70;99.90
10911;DHT22;5508;49.150;11.030;2023-03-21T05:28:20;5.80;99.90
10911;DHT22;5508;49.150;11.030;2023-03-21T05:31:21;5.70;99.90
10911;DHT22;5508;49.150;11.030;2023-03-21T05:34:22;5.70;99.90
10911;DHT22;5508;49.150;11.030;2023-03-21T05:37:23;5.70;99.90
10911;DHT22;5508;49.150;11.030;2023-03-21T05:40:24;5.70;99.90
10911;DHT22;5508;49.150;11.030;2023-03-21T05:43:25;5.70;99.90
10911;DHT22;5508;49.150;11.030;2023-03-21T05:46:25;5.70;99.90
10911;DHT22;5508;49.150;11.030;2023-03-21T05:49:26;5.70;99.90
10911;DHT22;5508;49.150;11.030;2023-03-21T05:52:26;5.70;99.90
10911;DHT22;5508;49.150;11.030;2023-03-21T05:55:28;5.80;99.90
10911;DHT22;5508;49.150;11.030;2023-03-21T05:58:29;5.80;99.90
10911;DHT22;5508;49.150;11.030;2023-03-21T06:01:30;5.80;99.90
10911;DHT22;5508;49.150;11.030;2023-03-21T06:04:30;5.80;99.90
10911;DHT22;5508;49.150;11.030;2023-03-21T06:07:32;5.90;99.90
10911;DHT22;5508;49.150;11.030;2023-03-21T06:10:33;5.90;99.90
10911;DHT22;5508;49.150;11.030;2023-03-21T06:13:34;6.00;99.90
10911;DHT22;5508;49.150;11.030;2023-03-21T06:16:34;6.10;99.90
10911;DHT22;5508;49.150;11.030;2023-03-21T06:19:35;6.20;99.90
10911;DHT22;5508;49.150;11.030;2023-03-21T06:22:36;6.30;99.90
10911;DHT22;5508;49.150;11.030;2023-03-21T06:25:36;6.30;99.90
10911;DHT22;5508;49.150;11.030;2023-03-21T06:28:38;6.30;99.90
10911;DHT22;5508;49.150;11.030;2023-03-21T06:31:38;6.40;99.90
10911;DHT22;5508;49.150;11.030;2023-03-21T06:34:39;6.50;99.90
10911;DHT22;5508;49.150;11.030;2023-03-21T06:37:40;6.70;99.90
10911;DHT22;5508;49.150;11.030;2023-03-21T06:40:44;6.90;99.90
10911;DHT22;5508;49.150;11.030;2023-03-21T06:43:44;6.90;99.90
10911;DHT22;5508;49.150;11.030;2023-03-21T06:46:45;6.90;99.90
10911;DHT22;5508;49.150;11.030;2023-03-21T06:49:46;6.90;99.90
10911;DHT22;5508;49.150;11.030;2023-03-21T06:52:47;7.00;99.90
10911;DHT22;5508;49.150;11.030;2023-03-21T06:55:49;7.10;99.90
10911;DHT22;5508;49.150;11.030;2023-03-21T06:58:50;7.10;99.90
10911;DHT22;5508;49.150;11.030;2023-03-21T07:01:50;7.20;99.90
10911;DHT22;5508;49.150;11.030;2023-03-21T07:04:51;7.30;99.90
10911;DHT22;5508;49.150;11.030;2023-03-21T07:07:52;7.40;99.90
10911;DHT22;5508;49.150;11.030;2023-03-21T07:10:55;7.60;99.90
10911;DHT22;5508;49.150;11.030;2023-03-21T07:13:57;7.70;99.90
10911;DHT22;5508;49.150;11.030;2023-03-21T07:16:57;7.70;99.90
10911;DHT22;5508;49.150;11.030;2023-03-21T07:19:58;7.80;99.90
10911;DHT22;5508;49.150;11.030;2023-03-21T07:22:59;7.90;99.90
10911;DHT22;5508;49.150;11.030;2023-03-21T07:26:00;8.00;99.90
10911;DHT22;5508;49.150;11.030;2023-03-21T07:29:01;8.00;99.90
10911;DHT22;5508;49.150;11.030;2023-03-21T07:32:04;7.90;99.90
10911;DHT22;5508;49.150;11.030;2023-03-21T07:35:24;7.90;99.90
10911;DHT22;5508;49.150;11.030;2023-03-21T07:38:26;7.90;99.90
10911;DHT22;5508;49.150;11.030;2023-03-21T07:41:27;8.10;99.90
10911;DHT22;5508;49.150;11.030;2023-03-21T07:44:27;8.00;99.90
10911;DHT22;5508;49.150;11.030;2023-03-21T07:47:30;8.20;99.90
10911;DHT22;5508;49.150;11.030;2023-03-21T07:50:31;8.40;99.90
10911;DHT22;5508;49.150;11.030;2023-03-21T07:53:31;8.50;99.90
10911;DHT22;5508;49.150;11.030;2023-03-21T07:56:32;9.00;99.90
10911;DHT22;5508;49.150;11.030;2023-03-21T07:59:32;9.10;97.80
10911;DHT22;5508;49.150;11.030;2023-03-21T08:02:33;9.20;95.80
10911;DHT22;5508;49.150;11.030;2023-03-21T08:05:35;9.30;95.90
10911;DHT22;5508;49.150;11.030;2023-03-21T08:08:36;9.60;95.50
10911;DHT22;5508;49.150;11.030;2023-03-21T08:11:36;10.00;92.30
10911;DHT22;5508;49.150;11.030;2023-03-21T08:14:37;10.10;87.40
10911;DHT22;5508;49.150;11.030;2023-03-21T08:17:38;10.10;86.40
10911;DHT22;5508;49.150;11.030;2023-03-21T08:20:39;10.30;89.00
10911;DHT22;5508;49.150;11.030;2023-03-21T08:23:40;10.20;78.70
10911;DHT22;5508;49.150;11.030;2023-03-21T08:26:41;10.50;81.10
10911;DHT22;5508;49.150;11.030;2023-03-21T08:29:43;10.50;79.20
10911;DHT22;5508;49.150;11.030;2023-03-21T08:32:43;10.60;74.10
10911;DHT22;5508;49.150;11.030;2023-03-21T08:35:44;10.60;76.30
10911;DHT22;5508;49.150;11.030;2023-03-21T08:38:45;11.00;76.90
10911;DHT22;5508;49.150;11.030;2023-03-21T08:41:47;11.10;72.60
10911;DHT22;5508;49.150;11.030;2023-03-21T08:44:48;11.40;75.80
10911;DHT22;5508;49.150;11.030;2023-03-21T08:47:50;11.30;73.90
10911;DHT22;5508;49.150;11.030;2023-03-21T08:50:50;11.40;70.40
10911;DHT22;5508;49.150;11.030;2023-03-21T08:53:51;11.70;70.50
10911;DHT22;5508;49.150;11.030;2023-03-21T08:56:52;11.40;72.40
10911;DHT22;5508;49.150;11.030;2023-03-21T08:59:52;11.50;71.20
10911;DHT22;5508;49.150;11.030;2023-03-21T09:02:53;11.50;73.30
10911;DHT22;5508;49.150;11.030;2023-03-21T09:05:53;11.50;73.50
10911;DHT22;5508;49.150;11.030;2023-03-21T09:08:54;11.70;73.10
10911;DHT22;5508;49.150;11.030;2023-03-21T09:11:56;11.90;70.20
10911;DHT22;5508;49.150;11.030;2023-03-21T09:14:56;11.70;68.60
10911;DHT22;5508;49.150;11.030;2023-03-21T09:17:57;11.50;70.80
10911;DHT22;5508;49.150;11.030;2023-03-21T09:21:14;11.50;72.30
10911;DHT22;5508;49.150;11.030;2023-03-21T09:24:15;11.70;70.70
10911;DHT22;5508;49.150;11.030;2023-03-21T09:27:17;11.40;69.80
10911;DHT22;5508;49.150;11.030;2023-03-21T09:30:22;11.50;70.30
10911;DHT22;5508;49.150;11.030;2023-03-21T09:33:23;11.90;71.80
10911;DHT22;5508;49.150;11.030;2023-03-21T09:36:25;12.00;68.80
10911;DHT22;5508;49.150;11.030;2023-03-21T09:39:26;12.00;71.30
10911;DHT22;5508;49.150;11.030;2023-03-21T09:42:53;12.00;67.50
10911;DHT22;5508;49.150;11.030;2023-03-21T09:46:26;12.50;70.50
10911;DHT22;5508;49.150;11.030;2023-03-21T09:49:34;13.00;65.70
10911;DHT22;5508;49.150;11.030;2023-03-21T09:53:03;13.00;64.30
10911;DHT22;5508;49.150;11.030;2023-03-21T09:56:09;13.10;65.20
10911;DHT22;5508;49.150;11.030;2023-03-21T09:59:35;12.80;68.60
10911;DHT22;5508;49.150;11.030;2023-03-21T10:02:48;12.90;64.20
10911;DHT22;5508;49.150;11.030;2023-03-21T10:05:54;12.70;64.90
10911;DHT22;5508;49.150;11.030;2023-03-21T10:09:27;12.60;66.50
10911;DHT22;5508;49.150;11.030;2023-03-21T10:12:28;12.90;63.40
10911;DHT22;5508;49.150;11.030;2023-03-21T10:15:30;13.10;61.70
10911;DHT22;5508;49.150;11.030;2023-03-21T10:18:31;13.50;62.90
10911;DHT22;5508;49.150;11.030;2023-03-21T10:21:32;13.90;63.60
10911;DHT22;5508;49.150;11.030;2023-03-21T10:24:33;14.00;61.70
10911;DHT22;5508;49.150;11.030;2023-03-21T10:27:35;13.50;59.20
10911;DHT22;5508;49.150;11.030;2023-03-21T10:30:41;13.70;58.70
10911;DHT22;5508;49.150;11.030;2023-03-21T10:33:46;13.50;60.60
10911;DHT22;5508;49.150;11.030;2023-03-21T10:36:48;13.90;59.70
10911;DHT22;5508;49.150;11.030;2023-03-21T10:39:53;14.40;58.30
10911;DHT22;5508;49.150;11.030;2023-03-21T10:42:55;14.60;58.20
10911;DHT22;5508;49.150;11.030;2023-03-21T10:45:56;14.80;60.50
10911;DHT22;5508;49.150;11.030;2023-03-21T10:48:57;14.70;58.80
10911;DHT22;5508;49.150;11.030;2023-03-21T10:52:02;14.50;57.00
10911;DHT22;5508;49.150;11.030;2023-03-21T10:55:14;14.40;58.50
10911;DHT22;5508;49.150;11.030;2023-03-21T10:58:23;14.60;57.10
10911;DHT22;5508;49.150;11.030;2023-03-21T11:01:38;14.50;58.20
10911;DHT22;5508;49.150;11.030;2023-03-21T11:04:42;14.60;54.50
10911;DHT22;5508;49.150;11.030;2023-03-21T11:07:43;15.00;54.20
10911;DHT22;5508;49.150;11.030;2023-03-21T11:11:03;15.10;55.00
10911;DHT22;5508;49.150;11.030;2023-03-21T11:14:23;15.50;56.90
10911;DHT22;5508;49.150;11.030;2023-03-21T11:17:29;15.80;54.20
10911;DHT22;5508;49.150;11.030;2023-03-21T11:20:30;15.20;50.00
10911;DHT22;5508;49.150;11.030;2023-03-21T11:23:33;15.10;51.60
10911;DHT22;5508;49.150;11.030;2023-03-21T11:26:36;14.50;53.60
10911;DHT22;5508;49.150;11.030;2023-03-21T11:29:38;14.60;52.70
10911;DHT22;5508;49.150;11.030;2023-03-21T11:32:41;14.50;53.50
10911;DHT22;5508;49.150;11.030;2023-03-21T11:35:43;14.80;56.10
10911;DHT22;5508;49.150;11.030;2023-03-21T11:38:48;14.80;52.00
10911;DHT22;5508;49.150;11.030;2023-03-21T11:41:51;15.10;53.90
10911;DHT22;5508;49.150;11.030;2023-03-21T11:45:01;14.90;54.50
10911;DHT22;5508;49.150;11.030;2023-03-21T11:48:11;14.80;53.40
10911;DHT22;5508;49.150;11.030;2023-03-21T11:51:24;15.10;55.10
10911;DHT22;5508;49.150;11.030;2023-03-21T11:54:37;15.50;54.40
10911;DHT22;5508;49.150;11.030;2023-03-21T12:04:37;15.10;54.60
10911;DHT22;5508;49.150;11.030;2023-03-21T12:14:29;15.10;51.60
10911;DHT22;5508;49.150;11.030;2023-03-21T12:17:54;15.10;52.40
10911;DHT22;5508;49.150;11.030;2023-03-21T12:24:21;14.90;52.80
10911;DHT22;5508;49.150;11.030;2023-03-21T12:27:52;15.20;50.40
10911;DHT22;5508;49.150;11.030;2023-03-21T12:44:04;15.40;49.80
10911;DHT22;5508;49.150;11.030;2023-03-21T12:47:23;15.20;50.90
10911;DHT22;5508;49.150;11.030;2023-03-21T12:50:32;15.30;52.80
10911;DHT22;5508;49.150;11.030;2023-03-21T12:53:50;15.50;54.00
10911;DHT22;5508;49.150;11.030;2023-03-21T13:00:17;15.40;53.00
10911;DHT22;5508;49.150;11.030;2023-03-21T13:03:39;15.40;58.70
10911;DHT22;5508;49.150;11.030;2023-03-21T13:06:44;15.30;52.90
10911;DHT22;5508;49.150;11.030;2023-03-21T13:09:46;15.40;53.30
10911;DHT22;5508;49.150;11.030;2023-03-21T13:12:50;15.80;53.40
10911;DHT22;5508;49.150;11.030;2023-03-21T13:19:27;15.30;52.50
10911;DHT22;5508;49.150;11.030;2023-03-21T13:22:30;15.30;53.50
10911;DHT22;5508;49.150;11.030;2023-03-21T13:25:31;15.30;52.60
10911;DHT22;5508;49.150;11.030;2023-03-21T13:28:35;15.30;52.10
10911;DHT22;5508;49.150;11.030;2023-03-21T13:31:43;15.40;54.40
10911;DHT22;5508;49.150;11.030;2023-03-21T13:34:44;15.30;54.40
10911;DHT22;5508;49.150;11.030;2023-03-21T13:41:21;15.50;54.70
10911;DHT22;5508;49.150;11.030;2023-03-21T13:47:50;16.10;53.40
10911;DHT22;5508;49.150;11.030;2023-03-21T13:57:40;15.50;54.70
10911;DHT22;5508;49.150;11.030;2023-03-21T14:00:40;15.40;54.50
10911;DHT22;5508;49.150;11.030;2023-03-21T14:03:41;15.30;53.00
10911;DHT22;5508;49.150;11.030;2023-03-21T14:06:48;15.10;52.00
10911;DHT22;5508;49.150;11.030;2023-03-21T14:09:53;15.10;54.80
10911;DHT22;5508;49.150;11.030;2023-03-21T14:12:55;15.10;54.30
10911;DHT22;5508;49.150;11.030;2023-03-21T14:15:59;15.20;56.60
10911;DHT22;5508;49.150;11.030;2023-03-21T14:19:04;15.20;56.00
10911;DHT22;5508;49.150;11.030;2023-03-21T14:22:10;15.20;55.70
10911;DHT22;5508;49.150;11.030;2023-03-21T14:25:13;15.50;55.60
10911;DHT22;5508;49.150;11.030;2023-03-21T14:28:21;15.50;52.80
10911;DHT22;5508;49.150;11.030;2023-03-21T14:31:23;15.40;54.60
10911;DHT22;5508;49.150;11.030;2023-03-21T14:34:31;15.30;54.50
10911;DHT22;5508;49.150;11.030;2023-03-21T14:37:37;15.20;52.80
10911;DHT22;5508;49.150;11.030;2023-03-21T14:40:46;15.30;53.40
10911;DHT22;5508;49.150;11.030;2023-03-21T14:44:16;15.50;54.50
10911;DHT22;5508;49.150;11.030;2023-03-21T14:47:22;15.40;54.90
10911;DHT22;5508;49.150;11.030;2023-03-21T14:50:30;15.50;53.40
10911;DHT22;5508;49.150;11.030;2023-03-21T14:53:37;15.50;53.50
10911;DHT22;5508;49.150;11.030;2023-03-21T14:56:38;15.10;56.50
10911;DHT22;5508;49.150;11.030;2023-03-21T14:59:40;15.00;54.90
10911;DHT22;5508;49.150;11.030;2023-03-21T15:02:42;14.90;56.70
10911;DHT22;5508;49.150;11.030;2023-03-21T15:05:44;14.80;56.70
10911;DHT22;5508;49.150;11.030;2023-03-21T15:08:57;14.80;57.50
10911;DHT22;5508;49.150;11.030;2023-03-21T15:11:59;14.80;54.70
10911;DHT22;5508;49.150;11.030;2023-03-21T15:15:01;14.70;56.90
10911;DHT22;5508;49.150;11.030;2023-03-21T15:18:05;14.90;57.60
10911;DHT22;5508;49.150;11.030;2023-03-21T15:24:31;14.80;56.00
10911;DHT22;5508;49.150;11.030;2023-03-21T15:27:40;14.60;55.10
10911;DHT22;5508;49.150;11.030;2023-03-21T15:30:51;14.50;58.20
10911;DHT22;5508;49.150;11.030;2023-03-21T15:33:53;14.60;57.40
10911;DHT22;5508;49.150;11.030;2023-03-21T15:37:05;14.60;58.60
10911;DHT22;5508;49.150;11.030;2023-03-21T15:40:18;14.50;58.90
10911;DHT22;5508;49.150;11.030;2023-03-21T15:43:19;14.60;57.30
10911;DHT22;5508;49.150;11.030;2023-03-21T15:49:53;14.30;59.90
10911;DHT22;5508;49.150;11.030;2023-03-21T15:52:57;14.30;59.00
10911;DHT22;5508;49.150;11.030;2023-03-21T15:55:59;14.30;58.80
10911;DHT22;5508;49.150;11.030;2023-03-21T15:59:02;14.40;58.00
10911;DHT22;5508;49.150;11.030;2023-03-21T16:02:15;14.40;59.30
10911;DHT22;5508;49.150;11.030;2023-03-21T16:05:27;14.30;58.60
10911;DHT22;5508;49.150;11.030;2023-03-21T16:08:35;14.20;61.70
10911;DHT22;5508;49.150;11.030;2023-03-21T16:11:47;14.20;61.40
10911;DHT22;5508;49.150;11.030;2023-03-21T16:14:48;14.10;60.70
10911;DHT22;5508;49.150;11.030;2023-03-21T16:18:07;13.90;62.50
10911;DHT22;5508;49.150;11.030;2023-03-21T16:21:15;13.80;62.60
10911;DHT22;5508;49.150;11.030;2023-03-21T16:24:17;13.70;64.10
10911;DHT22;5508;49.150;11.030;2023-03-21T16:27:18;13.70;62.80
10911;DHT22;5508;49.150;11.030;2023-03-21T16:30:20;13.70;66.50
10911;DHT22;5508;49.150;11.030;2023-03-21T16:33:21;13.60;64.40
10911;DHT22;5508;49.150;11.030;2023-03-21T16:36:28;13.50;65.50
10911;DHT22;5508;49.150;11.030;2023-03-21T16:39:29;13.60;65.90
10911;DHT22;5508;49.150;11.030;2023-03-21T16:42:29;13.50;66.50
10911;DHT22;5508;49.150;11.030;2023-03-21T16:45:30;13.40;66.40
10911;DHT22;5508;49.150;11.030;2023-03-21T16:48:30;13.50;66.50
10911;DHT22;5508;49.150;11.030;2023-03-21T16:51:33;13.30;67.90
10911;DHT22;5508;49.150;11.030;2023-03-21T16:54:34;13.30;68.50
10911;DHT22;5508;49.150;11.030;2023-03-21T16:57:35;13.10;70.70
10911;DHT22;5508;49.150;11.030;2023-03-21T17:00:36;13.00;73.10
10911;DHT22;5508;49.150;11.030;2023-03-21T17:03:37;13.00;75.10
10911;DHT22;5508;49.150;11.030;2023-03-21T17:06:42;12.80;74.90
10911;DHT22;5508;49.150;11.030;2023-03-21T17:09:44;12.80;74.30
10911;DHT22;5508;49.150;11.030;2023-03-21T17:12:44;12.70;73.60
10911;DHT22;5508;49.150;11.030;2023-03-21T17:15:45;12.70;73.90
10911;DHT22;5508;49.150;11.030;2023-03-21T17:18:46;12.60;74.80
10911;DHT22;5508;49.150;11.030;2023-03-21T17:21:47;12.50;75.70
10911;DHT22;5508;49.150;11.030;2023-03-21T17:24:47;12.50;75.70
10911;DHT22;5508;49.150;11.030;2023-03-21T17:27:48;12.40;76.30
10911;DHT22;5508;49.150;11.030;2023-03-21T17:30:52;12.30;78.60
10911;DHT22;5508;49.150;11.030;2023-03-21T17:33:53;12.20;80.60
10911;DHT22;5508;49.150;11.030;2023-03-21T17:36:53;12.20;84.10
10911;DHT22;5508;49.150;11.030;2023-03-21T17:39:54;12.10;85.60
10911;DHT22;5508;49.150;11.030;2023-03-21T17:42:56;12.00;84.80
10911;DHT22;5508;49.150;11.030;2023-03-21T17:45:57;11.90;89.90
10911;DHT22;5508;49.150;11.030;2023-03-21T17:48:58;11.90;93.10
10911;DHT22;5508;49.150;11.030;2023-03-21T17:51:58;11.70;93.00
10911;DHT22;5508;49.150;11.030;2023-03-21T17:54:59;11.60;93.00
10911;DHT22;5508;49.150;11.030;2023-03-21T17:58:00;11.50;92.00
10911;DHT22;5508;49.150;11.030;2023-03-21T18:01:01;11.30;90.50
10911;DHT22;5508;49.150;11.030;2023-03-21T18:04:01;11.20;93.00
10911;DHT22;5508;49.150;11.030;2023-03-21T18:07:04;11.10;93.10
10911;DHT22;5508;49.150;11.030;2023-03-21T18:10:10;11.10;94.10
10911;DHT22;5508;49.150;11.030;2023-03-21T18:13:11;11.10;94.20
10911;DHT22;5508;49.150;11.030;2023-03-21T18:16:14;11.10;95.90
10911;DHT22;5508;49.150;11.030;2023-03-21T18:19:15;11.00;96.10
10911;DHT22;5508;49.150;11.030;2023-03-21T18:22:16;11.00;96.70
10911;DHT22;5508;49.150;11.030;2023-03-21T18:25:17;10.90;99.40
10911;DHT22;5508;49.150;11.030;2023-03-21T18:28:18;10.90;99.90
10911;DHT22;5508;49.150;11.030;2023-03-21T18:31:19;10.90;99.90
10911;DHT22;5508;49.150;11.030;2023-03-21T18:34:20;10.80;99.90
10911;DHT22;5508;49.150;11.030;2023-03-21T18:37:20;10.70;99.90
10911;DHT22;5508;49.150;11.030;2023-03-21T18:40:21;10.70;99.80
10911;DHT22;5508;49.150;11.030;2023-03-21T18:43:23;10.60;99.90
10911;DHT22;5508;49.150;11.030;2023-03-21T18:46:24;10.60;99.90
10911;DHT22;5508;49.150;11.030;2023-03-21T18:49:25;10.60;99.90
10911;DHT22;5508;49.150;11.030;2023-03-21T18:52:25;10.40;99.90
10911;DHT22;5508;49.150;11.030;2023-03-21T18:55:26;10.40;99.90
10911;DHT22;5508;49.150;11.030;2023-03-21T18:58:27;10.30;99.90
10911;DHT22;5508;49.150;11.030;2023-03-21T19:01:28;10.30;99.90
10911;DHT22;5508;49.150;11.030;2023-03-21T19:04:29;10.30;99.90
10911;DHT22;5508;49.150;11.030;2023-03-21T19:07:30;10.30;99.90
10911;DHT22;5508;49.150;11.030;2023-03-21T19:10:30;10.20;99.90
10911;DHT22;5508;49.150;11.030;2023-03-21T19:13:31;10.20;99.90
10911;DHT22;5508;49.150;11.030;2023-03-21T19:16:32;10.20;99.90
10911;DHT22;5508;49.150;11.030;2023-03-21T19:19:33;10.10;99.90
10911;DHT22;5508;49.150;11.030;2023-03-21T19:22:33;10.10;99.90
10911;DHT22;5508;49.150;11.030;2023-03-21T19:25:34;10.00;99.90
10911;DHT22;5508;49.150;11.030;2023-03-21T19:28:35;10.00;99.90
10911;DHT22;5508;49.150;11.030;2023-03-21T19:31:35;10.00;99.90
10911;DHT22;5508;49.150;11.030;2023-03-21T19:34:36;10.00;99.90
10911;DHT22;5508;49.150;11.030;2023-03-21T19:37:37;9.90;99.90
10911;DHT22;5508;49.150;11.030;2023-03-21T19:40:38;9.90;99.90
10911;DHT22;5508;49.150;11.030;2023-03-21T19:43:40;9.90;99.90
10911;DHT22;5508;49.150;11.030;2023-03-21T19:46:40;9.80;99.90
10911;DHT22;5508;49.150;11.030;2023-03-21T19:49:41;9.90;99.90
10911;DHT22;5508;49.150;11.030;2023-03-21T19:52:42;9.80;99.90
10911;DHT22;5508;49.150;11.030;2023-03-21T19:55:43;9.80;99.90
10911;DHT22;5508;49.150;11.030;2023-03-21T19:58:43;9.80;99.90
10911;DHT22;5508;49.150;11.030;2023-03-21T20:01:45;9.80;99.90
10911;DHT22;5508;49.150;11.030;2023-03-21T20:04:47;9.70;99.90
10911;DHT22;5508;49.150;11.030;2023-03-21T20:07:48;9.70;99.90
10911;DHT22;5508;49.150;11.030;2023-03-21T20:10:48;9.60;99.90
10911;DHT22;5508;49.150;11.030;2023-03-21T20:13:49;9.60;99.90
10911;DHT22;5508;49.150;11.030;2023-03-21T20:16:49;9.50;99.90
10911;DHT22;5508;49.150;11.030;2023-03-21T20:19:50;9.50;99.90
10911;DHT22;5508;49.150;11.030;2023-03-21T20:22:52;9.50;99.90
10911;DHT22;5508;49.150;11.030;2023-03-21T20:25:53;9.50;99.90
10911;DHT22;5508;49.150;11.030;2023-03-21T20:28:54;9.50;99.90
10911;DHT22;5508;49.150;11.030;2023-03-21T20:31:57;9.50;99.90
10911;DHT22;5508;49.150;11.030;2023-03-21T20:34:57;9.50;99.90
10911;DHT22;5508;49.150;11.030;2023-03-21T20:37:58;9.50;99.90
10911;DHT22;5508;49.150;11.030;2023-03-21T20:41:01;9.50;99.90
10911;DHT22;5508;49.150;11.030;2023-03-21T20:44:02;9.50;99.90
10911;DHT22;5508;49.150;11.030;2023-03-21T20:47:03;9.50;99.90
10911;DHT22;5508;49.150;11.030;2023-03-21T20:50:06;9.50;99.90
10911;DHT22;5508;49.150;11.030;2023-03-21T20:53:08;9.50;99.90
10911;DHT22;5508;49.150;11.030;2023-03-21T20:56:08;9.50;99.90
10911;DHT22;5508;49.150;11.030;2023-03-21T20:59:10;9.50;99.90